Time;durP1;ratioP1;P1;durP2;ratioP2;P2;SDS_P1;SDS_P2;PMS_P1;PMS_P2;Temp;Humidity;BMP_temperature;BMP_pressure;BME280_temperature;BME280_humidity;BME280_pressure;Samples;Min_cycle;Max_cycle;Signal;HPM_P1;HPM_P2
2023/08/17 00:01:45;;;;;;;;;8.67;8.67;;;;;22.44;88.63;101574.50;5062909;27;48359;-75
2023/08/17 00:04:11;;;;;;;;;12.00;10.00;;;;;22.52;88.93;101593.56;5074358;27;45973;-75
2023/08/17 00:06:36;;;;;;;;;10.67;9.33;;;;;22.47;89.78;101587.72;5081068;27;45497;-74
2023/08/17 00:09:03;;;;;;;;;10.00;10.00;;;;;22.45;90.58;101597.75;5081536;27;45591;-75
2023/08/17 00:11:29;;;;;;;;;9.67;9.67;;;;;22.37;90.25;101576.88;5079086;27;45506;-75
2023/08/17 00:13:54;;;;;;;;;9.00;6.67;;;;;22.41;90.46;101589.09;5073971;27;45280;-75
2023/08/17 00:16:19;;;;;;;;;9.67;9.67;;;;;22.41;89.97;101597.19;5089812;27;45512;-74
2023/08/17 00:18:45;;;;;;;;;9.33;9.33;;;;;22.39;89.35;101599.16;5091199;27;45399;-75
2023/08/17 00:21:10;;;;;;;;;9.67;9.67;;;;;22.30;92.48;101591.84;5080233;27;45367;-75
2023/08/17 00:23:36;;;;;;;;;9.67;9.67;;;;;22.25;90.52;101589.50;5085170;27;45551;-75
2023/08/17 00:26:01;;;;;;;;;10.33;10.33;;;;;22.28;92.69;101596.50;5079574;27;45513;-75
2023/08/17 00:28:26;;;;;;;;;11.00;10.00;;;;;22.28;94.08;101596.50;5078442;28;46018;-75
2023/08/17 00:30:53;;;;;;;;;9.67;8.67;;;;;22.23;91.35;101587.94;5060775;28;45643;-75
2023/08/17 00:33:18;;;;;;;;;13.33;12.00;;;;;22.21;92.20;101588.09;5071652;27;45256;-75
2023/08/17 00:35:45;;;;;;;;;10.33;9.00;;;;;22.22;92.98;101597.84;5092274;27;45218;-74
2023/08/17 00:38:10;;;;;;;;;10.67;10.00;;;;;22.12;92.61;101579.91;5077784;27;45496;-74
2023/08/17 00:40:36;;;;;;;;;9.00;8.67;;;;;22.13;93.46;101592.38;5082357;27;45288;-75
2023/08/17 00:43:01;;;;;;;;;7.67;7.67;;;;;22.06;92.42;101589.34;5087023;27;45537;-74
2023/08/17 00:45:26;;;;;;;;;8.67;8.00;;;;;22.08;93.64;101587.41;5091920;27;45994;-75
2023/08/17 00:47:56;;;;;;;;;12.67;10.33;;;;;22.10;93.20;101596.19;5079516;27;46274;-75
2023/08/17 00:50:22;;;;;;;;;11.00;10.00;;;;;22.07;95.17;101603.66;5080583;27;45711;-75
2023/08/17 00:52:47;;;;;;;;;8.00;8.00;;;;;22.04;95.29;101606.63;5088774;27;45380;-75
2023/08/17 00:55:13;;;;;;;;;8.00;8.00;;;;;22.01;94.60;101604.19;5060201;28;45322;-75
2023/08/17 00:57:40;;;;;;;;;9.67;9.67;;;;;21.95;94.44;101597.47;5095571;27;46617;-75
2023/08/17 01:00:06;;;;;;;;;9.00;9.00;;;;;21.95;96.40;101596.59;5082021;27;45456;-75
2023/08/17 01:02:33;;;;;;;;;9.00;9.00;;;;;21.92;95.99;101595.03;5102856;27;44862;-75
2023/08/17 01:04:58;;;;;;;;;8.00;8.00;;;;;21.89;97.04;101594.38;5064131;28;45738;-75
2023/08/17 01:07:24;;;;;;;;;13.00;10.00;;;;;21.85;97.23;101588.41;5084588;28;46004;-74
2023/08/17 01:09:49;;;;;;;;;8.33;8.33;;;;;21.77;97.37;101583.63;5085801;28;45285;-75
2023/08/17 01:12:56;;;;;;;;;9.67;9.00;;;;;21.79;97.31;101589.72;5067706;28;45413;-75
2023/08/17 01:15:35;;;;;;;;;11.67;9.67;;;;;21.73;97.72;101589.38;5042674;28;45353;-75
2023/08/17 01:18:03;;;;;;;;;14.00;9.67;;;;;21.73;100.00;101587.53;5021886;28;46402;-75
2023/08/17 01:20:31;;;;;;;;;12.00;11.00;;;;;21.69;98.84;101593.31;5066813;27;45423;-74
2023/08/17 01:23:06;;;;;;;;;11.33;10.00;;;;;21.63;100.00;101583.88;5093538;27;45405;-75
2023/08/17 01:25:36;;;;;;;;;13.67;13.33;;;;;21.62;100.00;101590.28;5080113;27;45369;-75
2023/08/17 01:28:03;;;;;;;;;14.67;13.33;;;;;21.59;100.00;101584.28;5081057;28;45280;-75
2023/08/17 01:30:33;;;;;;;;;15.33;14.00;;;;;21.61;100.00;101591.22;5067636;27;45322;-75
2023/08/17 01:33:06;;;;;;;;;14.33;12.00;;;;;21.49;100.00;101568.00;5094625;27;45249;-75
2023/08/17 01:35:43;;;;;;;;;14.00;12.67;;;;;21.55;100.00;101586.34;5063539;27;45715;-75
2023/08/17 01:38:14;;;;;;;;;14.00;12.67;;;;;21.52;100.00;101588.44;5090987;27;46331;-75
2023/08/17 01:40:42;;;;;;;;;13.67;10.67;;;;;21.47;100.00;101580.72;5102186;27;45353;-75
2023/08/17 01:43:08;;;;;;;;;14.33;13.00;;;;;21.43;100.00;101586.47;5088769;27;45340;-75
2023/08/17 01:45:34;;;;;;;;;14.33;13.33;;;;;21.40;100.00;101586.72;5083648;27;45453;-75
2023/08/17 01:47:59;;;;;;;;;8.33;7.33;;;;;21.39;100.00;101590.41;5075758;27;46969;-75
2023/08/17 01:50:25;;;;;;;;;12.67;11.67;;;;;21.29;100.00;101585.75;5085513;27;45292;-75
2023/08/17 01:52:51;;;;;;;;;16.67;15.67;;;;;21.24;100.00;101587.94;5085900;27;45382;-75
2023/08/17 01:55:16;;;;;;;;;14.67;14.67;;;;;21.25;100.00;101597.72;5085855;27;45462;-75
2023/08/17 01:57:41;;;;;;;;;15.00;12.00;;;;;21.20;100.00;101594.53;5069097;27;46334;-75
2023/08/17 02:00:10;;;;;;;;;16.33;15.00;;;;;21.08;100.00;101576.63;5081606;27;45325;-75
2023/08/17 02:02:36;;;;;;;;;13.00;13.00;;;;;21.13;100.00;101593.31;5082530;27;45371;-74
2023/08/17 02:05:01;;;;;;;;;17.00;14.67;;;;;21.08;100.00;101587.41;5074638;28;45458;-75
2023/08/17 02:07:26;;;;;;;;;13.33;12.67;;;;;21.01;100.00;101588.00;5080951;27;46037;-75
2023/08/17 02:09:52;;;;;;;;;13.67;13.67;;;;;20.94;100.00;101581.41;5078965;27;45409;-75
2023/08/17 02:12:17;;;;;;;;;14.67;13.33;;;;;20.95;100.00;101593.84;5090487;27;45442;-75
2023/08/17 02:14:42;;;;;;;;;13.33;13.33;;;;;20.91;100.00;101595.09;5100840;27;45386;-75
2023/08/17 02:17:08;;;;;;;;;13.33;13.33;;;;;20.86;100.00;101587.38;5099538;27;56486;-75
2023/08/17 02:19:33;;;;;;;;;17.00;16.33;;;;;20.80;100.00;101585.16;5069488;28;45528;-75
2023/08/17 02:21:59;;;;;;;;;23.67;18.00;;;;;20.82;100.00;101591.25;5088863;27;45352;-75
2023/08/17 02:24:24;;;;;;;;;17.00;16.67;;;;;20.76;100.00;101573.78;5096704;27;45541;-75
2023/08/17 02:26:50;;;;;;;;;18.33;16.00;;;;;20.86;100.00;101594.56;5090143;27;46547;-75
2023/08/17 02:29:15;;;;;;;;;14.33;14.33;;;;;20.84;100.00;101592.03;5081741;27;45342;-74
2023/08/17 02:31:40;;;;;;;;;19.00;19.00;;;;;20.75;100.00;101587.34;5099280;27;45504;-74
2023/08/17 02:34:06;;;;;;;;;18.00;18.00;;;;;20.83;100.00;101595.69;5082536;27;45324;-74
2023/08/17 02:36:32;;;;;;;;;19.67;16.00;;;;;20.88;100.00;101606.91;5080538;27;45190;-74
2023/08/17 02:38:57;;;;;;;;;18.00;15.33;;;;;20.86;100.00;101602.66;5078940;28;45485;-74
2023/08/17 02:41:23;;;;;;;;;18.67;16.00;;;;;20.82;100.00;101603.84;5081358;27;45269;-75
2023/08/17 02:43:48;;;;;;;;;15.00;11.67;;;;;20.90;100.00;101610.38;5080042;28;45514;-74
2023/08/17 02:46:13;;;;;;;;;18.67;18.33;;;;;20.91;100.00;101609.38;5067204;27;46210;-75
2023/08/17 02:48:39;;;;;;;;;16.00;14.67;;;;;20.78;100.00;101579.88;5088547;27;45330;-75
2023/08/17 02:51:04;;;;;;;;;17.33;14.33;;;;;20.89;100.00;101599.72;5079692;27;45368;-74
2023/08/17 02:53:29;;;;;;;;;16.00;14.67;;;;;20.89;100.00;101597.88;5083681;27;45541;-75
2023/08/17 02:55:55;;;;;;;;;18.00;16.33;;;;;21.02;100.00;101616.59;5080840;27;45425;-75
2023/08/17 02:58:20;;;;;;;;;17.00;13.67;;;;;21.03;100.00;101611.13;5079553;28;53260;-75
2023/08/17 03:00:45;;;;;;;;;15.67;14.33;;;;;20.93;100.00;101593.13;5085890;27;45912;-75
2023/08/17 03:03:11;;;;;;;;;16.00;16.00;;;;;21.03;100.00;101629.09;5079361;27;47726;-75
2023/08/17 03:05:36;;;;;;;;;13.00;12.33;;;;;21.04;100.00;101620.06;5093728;27;45405;-75
2023/08/17 03:08:01;;;;;;;;;14.33;13.67;;;;;21.01;100.00;101610.38;5078513;28;47892;-75
2023/08/17 03:10:27;;;;;;;;;12.33;12.33;;;;;21.03;100.00;101616.50;5091060;27;45593;-75
2023/08/17 03:12:52;;;;;;;;;12.00;11.33;;;;;21.06;100.00;101616.25;5082046;27;45424;-75
2023/08/17 03:15:17;;;;;;;;;18.00;16.67;;;;;21.06;100.00;101610.03;5072786;27;46946;-75
2023/08/17 03:17:43;;;;;;;;;18.33;15.67;;;;;21.00;100.00;101605.13;5100425;27;45299;-75
2023/08/17 03:20:08;;;;;;;;;15.67;14.00;;;;;20.99;100.00;101603.41;5082421;27;45278;-75
2023/08/17 03:22:34;;;;;;;;;16.00;15.33;;;;;21.00;100.00;101602.44;5081860;27;45450;-74
2023/08/17 03:25:00;;;;;;;;;18.33;15.33;;;;;20.96;100.00;101604.50;5083868;27;46273;-75
2023/08/17 03:27:25;;;;;;;;;17.67;16.00;;;;;20.88;100.00;101593.47;5092221;27;45475;-75
2023/08/17 03:29:51;;;;;;;;;15.67;15.33;;;;;20.91;100.00;101598.63;5065845;28;45500;-75
2023/08/17 03:32:16;;;;;;;;;16.67;15.67;;;;;20.86;100.00;101595.44;5083135;28;45237;-75
2023/08/17 03:34:42;;;;;;;;;17.00;16.33;;;;;20.77;100.00;101588.09;5094585;27;46128;-75
2023/08/17 03:37:07;;;;;;;;;14.33;14.00;;;;;20.81;100.00;101600.28;5079140;27;45817;-75
2023/08/17 03:39:32;;;;;;;;;15.33;14.67;;;;;20.77;100.00;101607.78;5080788;27;45649;-75
2023/08/17 03:41:58;;;;;;;;;18.67;17.00;;;;;20.70;100.00;101595.78;5067968;27;45593;-74
2023/08/17 03:44:23;;;;;;;;;15.33;15.33;;;;;20.66;100.00;101598.78;5099630;27;47018;-74
2023/08/17 03:46:48;;;;;;;;;20.67;20.00;;;;;20.66;100.00;101613.09;5082158;27;49667;-74
2023/08/17 03:49:14;;;;;;;;;15.33;15.33;;;;;20.64;100.00;101614.19;5084180;27;48909;-75
2023/08/17 03:51:39;;;;;;;;;17.67;16.67;;;;;20.61;100.00;101611.75;5088027;27;45891;-74
2023/08/17 03:54:05;;;;;;;;;16.67;16.67;;;;;20.52;100.00;101599.84;5085379;27;46320;-75
2023/08/17 03:56:30;;;;;;;;;18.33;17.00;;;;;20.55;100.00;101609.53;5081751;27;45524;-75
2023/08/17 03:58:55;;;;;;;;;21.67;18.67;;;;;20.57;100.00;101610.25;5095579;27;45517;-75
2023/08/17 04:01:21;;;;;;;;;19.67;18.00;;;;;20.53;100.00;101601.56;5094913;27;45343;-75
2023/08/17 04:03:46;;;;;;;;;17.67;16.67;;;;;20.50;100.00;101599.13;5081024;27;45367;-74
2023/08/17 04:06:11;;;;;;;;;17.00;16.67;;;;;20.47;100.00;101595.81;5083893;27;52210;-74
2023/08/17 04:08:38;;;;;;;;;19.33;19.00;;;;;20.48;100.00;101594.84;5082546;27;45379;-75
2023/08/17 04:11:04;;;;;;;;;21.67;17.67;;;;;20.42;100.00;101598.00;5087328;27;45482;-74
2023/08/17 04:13:29;;;;;;;;;24.00;20.00;;;;;20.44;100.00;101614.84;5078633;27;45443;-74
2023/08/17 04:15:54;;;;;;;;;21.67;17.67;;;;;20.42;100.00;101598.81;5079662;27;45217;-75
2023/08/17 04:18:20;;;;;;;;;17.00;16.00;;;;;20.40;100.00;101599.91;5090206;27;46085;-75
2023/08/17 04:20:45;;;;;;;;;20.67;19.67;;;;;20.33;100.00;101585.22;5076213;27;48936;-75
2023/08/17 04:23:10;;;;;;;;;20.33;18.67;;;;;20.29;100.00;101581.09;5092087;27;45511;-75
2023/08/17 04:25:36;;;;;;;;;20.00;20.00;;;;;20.28;100.00;101590.97;5081112;27;45282;-75
2023/08/17 04:28:01;;;;;;;;;30.33;22.00;;;;;20.23;100.00;101580.53;5078089;27;45324;-75
2023/08/17 04:30:26;;;;;;;;;22.33;18.33;;;;;20.28;100.00;101588.28;5070786;28;45774;-75
2023/08/17 04:32:52;;;;;;;;;22.00;19.00;;;;;20.23;100.00;101579.66;5078620;27;46401;-75
2023/08/17 04:35:18;;;;;;;;;20.67;20.33;;;;;20.25;100.00;101596.53;5078530;27;45378;-75
2023/08/17 04:37:44;;;;;;;;;23.33;22.33;;;;;20.09;100.00;101575.31;5086469;27;45456;-74
2023/08/17 04:40:10;;;;;;;;;22.00;22.00;;;;;20.17;100.00;101590.88;5078481;28;45356;-75
2023/08/17 04:42:36;;;;;;;;;24.00;22.00;;;;;20.13;100.00;101594.75;5081590;27;45505;-75
2023/08/17 04:45:01;;;;;;;;;26.67;24.33;;;;;20.12;100.00;101596.56;5081887;28;45430;-75
2023/08/17 04:47:27;;;;;;;;;23.67;20.33;;;;;20.11;100.00;101591.34;5083094;27;45438;-75
2023/08/17 04:49:53;;;;;;;;;25.67;24.67;;;;;20.07;100.00;101590.69;5085721;27;45622;-75
2023/08/17 04:52:18;;;;;;;;;22.33;22.33;;;;;20.10;100.00;101598.53;5095603;27;45391;-75
2023/08/17 04:54:43;;;;;;;;;27.00;24.00;;;;;20.10;100.00;101605.72;5081002;27;45534;-75
2023/08/17 04:57:09;;;;;;;;;24.33;22.67;;;;;20.08;100.00;101605.00;5094041;27;45467;-75
2023/08/17 04:59:34;;;;;;;;;25.00;23.67;;;;;20.06;100.00;101605.09;5081800;27;45299;-75
2023/08/17 05:01:59;;;;;;;;;27.33;25.67;;;;;20.01;100.00;101593.84;5081200;27;45397;-75
2023/08/17 05:04:24;;;;;;;;;28.33;24.00;;;;;20.03;100.00;101608.00;5080488;27;45218;-74
2023/08/17 05:06:50;;;;;;;;;25.67;24.33;;;;;19.99;100.00;101600.31;5083771;27;45263;-74
2023/08/17 05:09:15;;;;;;;;;19.67;19.67;;;;;19.95;100.00;101598.81;5082297;27;45297;-75
2023/08/17 05:11:40;;;;;;;;;15.33;14.33;;;;;19.98;100.00;101604.81;5081826;27;49246;-74
2023/08/17 05:14:06;;;;;;;;;24.67;22.67;;;;;20.01;100.00;101611.78;5082078;27;45205;-74
2023/08/17 05:16:31;;;;;;;;;23.67;23.67;;;;;20.00;100.00;101608.22;5090475;27;45278;-74
2023/08/17 05:18:58;;;;;;;;;21.33;21.33;;;;;20.02;100.00;101613.50;5084563;27;45543;-75
2023/08/17 05:21:23;;;;;;;;;25.33;21.33;;;;;20.02;100.00;101603.63;5088773;27;46482;-74
2023/08/17 05:23:49;;;;;;;;;24.33;22.67;;;;;19.96;100.00;101596.00;5088779;27;45411;-74
2023/08/17 05:26:14;;;;;;;;;25.67;23.67;;;;;20.00;100.00;101597.50;5087037;27;45347;-74
2023/08/17 05:28:39;;;;;;;;;28.67;26.00;;;;;20.05;100.00;101594.47;5072533;27;45645;-74
2023/08/17 05:31:06;;;;;;;;;29.33;28.00;;;;;20.08;100.00;101595.13;5085949;27;45272;-75
2023/08/17 05:33:32;;;;;;;;;29.67;27.67;;;;;20.14;100.00;101594.66;5085796;27;45539;-75
2023/08/17 05:35:57;;;;;;;;;30.00;28.33;;;;;20.15;100.00;101603.56;5089748;27;45348;-75
2023/08/17 05:38:22;;;;;;;;;29.67;27.67;;;;;20.17;100.00;101594.41;5088790;27;45285;-75
2023/08/17 05:40:53;;;;;;;;;29.67;26.00;;;;;20.17;100.00;101590.88;5087752;27;45420;-75
2023/08/17 05:43:19;;;;;;;;;36.00;26.33;;;;;20.25;100.00;101600.06;5085051;27;45504;-75
2023/08/17 05:45:44;;;;;;;;;32.67;25.33;;;;;20.20;100.00;101586.13;5077174;27;45345;-74
2023/08/17 05:48:09;;;;;;;;;22.33;20.67;;;;;20.29;100.00;101595.34;5087868;27;45394;-75
2023/08/17 05:50:35;;;;;;;;;25.67;25.33;;;;;20.30;100.00;101593.53;5086802;27;47129;-74
2023/08/17 05:53:00;;;;;;;;;30.67;24.67;;;;;20.25;100.00;101586.63;5080990;27;45344;-75
2023/08/17 05:55:25;;;;;;;;;24.67;23.00;;;;;20.29;100.00;101581.91;5081792;28;45495;-75
2023/08/17 05:57:51;;;;;;;;;23.33;18.33;;;;;20.37;100.00;101592.97;5079716;28;45611;-75
2023/08/17 06:00:16;;;;;;;;;30.00;26.00;;;;;20.31;100.00;101577.31;5081351;27;45718;-75
2023/08/17 06:02:41;;;;;;;;;28.33;27.00;;;;;20.41;100.00;101586.38;5081551;27;45709;-76
2023/08/17 06:05:08;;;;;;;;;28.33;28.33;;;;;20.46;100.00;101583.31;5086952;27;46042;-75
2023/08/17 06:07:34;;;;;;;;;29.33;28.33;;;;;20.50;100.00;101580.31;5088226;27;45354;-74
2023/08/17 06:10:00;;;;;;;;;23.33;19.00;;;;;20.56;100.00;101577.16;5081393;27;45334;-76
2023/08/17 06:12:25;;;;;;;;;30.00;25.67;;;;;20.60;100.00;101581.31;5071080;28;45317;-76
2023/08/17 06:14:50;;;;;;;;;29.33;28.00;;;;;20.62;100.00;101582.03;5084249;27;48031;-75
2023/08/17 06:17:16;;;;;;;;;29.33;26.33;;;;;20.65;100.00;101578.25;5089002;27;53209;-75
2023/08/17 06:19:41;;;;;;;;;31.00;28.33;;;;;20.66;100.00;101567.41;5094468;27;45300;-76
2023/08/17 06:22:07;;;;;;;;;28.00;26.67;;;;;20.73;100.00;101575.84;5088332;27;45557;-75
2023/08/17 06:24:32;;;;;;;;;29.67;29.67;;;;;20.81;100.00;101577.97;5080482;27;45330;-75
2023/08/17 06:26:57;;;;;;;;;25.67;25.33;;;;;20.82;100.00;101559.00;5080572;27;47917;-74
2023/08/17 06:29:23;;;;;;;;;30.33;28.00;;;;;20.84;100.00;101558.91;5079079;27;45490;-75
2023/08/17 06:31:48;;;;;;;;;25.33;24.67;;;;;20.96;100.00;101572.22;5063930;28;45894;-75
2023/08/17 06:34:13;;;;;;;;;36.00;28.67;;;;;20.92;100.00;101554.63;5080805;27;45444;-76
2023/08/17 06:36:39;;;;;;;;;30.33;28.33;;;;;21.05;100.00;101563.44;5090929;27;45615;-75
2023/08/17 06:39:05;;;;;;;;;35.67;29.67;;;;;21.10;100.00;101566.66;5082369;27;45654;-75
2023/08/17 06:41:30;;;;;;;;;34.33;29.00;;;;;21.18;100.00;101577.66;5086104;27;45335;-75
2023/08/17 06:43:55;;;;;;;;;36.33;31.33;;;;;21.18;100.00;101566.91;5091569;27;45521;-75
2023/08/17 06:46:21;;;;;;;;;28.33;26.67;;;;;21.21;100.00;101561.28;5092032;27;47303;-75
2023/08/17 06:48:46;;;;;;;;;30.00;27.67;;;;;21.25;100.00;101560.06;5104710;27;45403;-75
2023/08/17 06:51:11;;;;;;;;;27.33;25.00;;;;;21.28;100.00;101546.34;5090477;27;48175;-76
2023/08/17 06:53:37;;;;;;;;;32.00;31.00;;;;;21.48;100.00;101562.72;5101859;27;45488;-75
2023/08/17 06:56:02;;;;;;;;;34.67;29.00;;;;;21.52;100.00;101548.06;5095410;27;46357;-75
2023/08/17 06:58:27;;;;;;;;;26.00;25.50;;;;;21.58;100.00;101539.47;5101212;27;56531;-75
2023/08/17 07:00:53;;;;;;;;;37.67;30.33;;;;;21.61;100.00;101534.69;5089941;27;45324;-76
2023/08/17 07:03:18;;;;;;;;;32.67;31.33;;;;;21.63;100.00;101534.56;5080898;27;45398;-75
2023/08/17 07:05:44;;;;;;;;;30.33;30.33;;;;;21.73;100.00;101533.69;5072282;28;45406;-75
2023/08/17 07:08:09;;;;;;;;;35.00;30.00;;;;;21.71;100.00;101532.97;5093827;27;45496;-76
2023/08/17 07:10:35;;;;;;;;;29.00;27.67;;;;;21.88;100.00;101536.09;5096183;27;45500;-75
2023/08/17 07:13:03;;;;;;;;;27.33;22.33;;;;;21.96;100.00;101547.13;5101538;27;45222;-75
2023/08/17 07:15:29;;;;;;;;;31.33;28.00;;;;;22.05;100.00;101547.22;5102096;27;45351;-75
2023/08/17 07:17:54;;;;;;;;;32.67;31.67;;;;;22.07;100.00;101547.94;5105157;27;46723;-75
2023/08/17 07:20:19;;;;;;;;;30.00;26.67;;;;;22.13;100.00;101549.25;5085315;28;49959;-75
2023/08/17 07:22:45;;;;;;;;;30.67;28.00;;;;;22.17;100.00;101548.91;5083772;27;45412;-75
2023/08/17 07:25:10;;;;;;;;;34.67;29.33;;;;;22.29;100.00;101561.31;5096516;27;45650;-75
2023/08/17 07:27:35;;;;;;;;;31.67;27.67;;;;;22.35;100.00;101551.03;5090016;27;45351;-75
2023/08/17 07:30:01;;;;;;;;;32.00;29.33;;;;;22.46;100.00;101556.34;5096032;27;45970;-75
2023/08/17 07:32:26;;;;;;;;;27.67;27.67;;;;;22.52;100.00;101554.00;5108374;27;52268;-75
2023/08/17 07:34:51;;;;;;;;;28.00;27.00;;;;;22.68;100.00;101553.56;5100522;27;45288;-75
2023/08/17 07:37:17;;;;;;;;;30.00;27.67;;;;;22.74;100.00;101548.50;5111046;27;46793;-75
2023/08/17 07:39:42;;;;;;;;;32.67;30.33;;;;;22.69;100.00;101533.69;5094167;28;52172;-76
2023/08/17 07:42:07;;;;;;;;;30.67;26.00;;;;;22.86;100.00;101545.72;5089297;27;45352;-75
2023/08/17 07:44:33;;;;;;;;;33.33;28.33;;;;;22.88;99.71;101525.72;5091230;27;44926;-76
2023/08/17 07:46:59;;;;;;;;;30.33;24.33;;;;;23.00;97.03;101540.84;5075857;28;47224;-76
2023/08/17 07:49:25;;;;;;;;;33.67;30.67;;;;;23.01;97.20;101536.28;5096449;27;45292;-75
2023/08/17 07:51:50;;;;;;;;;33.00;29.33;;;;;23.17;100.00;101559.09;5097038;27;45394;-76
2023/08/17 07:54:15;;;;;;;;;25.33;21.00;;;;;23.27;96.39;101554.59;5094824;27;51196;-75
2023/08/17 07:56:41;;;;;;;;;24.00;21.33;;;;;23.33;96.09;101558.59;5095954;27;45303;-75
2023/08/17 07:59:06;;;;;;;;;27.67;24.67;;;;;23.43;95.37;101556.00;5069213;28;45532;-74
2023/08/17 08:01:31;;;;;;;;;30.00;28.33;;;;;23.62;94.42;101569.56;5084384;27;45326;-75
2023/08/17 08:03:57;;;;;;;;;26.67;26.00;;;;;23.69;94.90;101562.63;5082939;28;45454;-77
2023/08/17 08:06:23;;;;;;;;;33.67;24.00;;;;;23.83;93.53;101571.16;5084235;27;45569;-75
2023/08/17 08:08:48;;;;;;;;;26.33;26.33;;;;;23.93;93.34;101565.78;5088332;27;45507;-75
2023/08/17 08:11:13;;;;;;;;;33.33;30.33;;;;;24.04;92.30;101554.84;5092196;27;45213;-75
2023/08/17 08:13:39;;;;;;;;;29.00;27.67;;;;;24.18;92.99;101564.44;5090094;27;46892;-75
2023/08/17 08:16:05;;;;;;;;;31.00;25.33;;;;;24.28;90.96;101566.13;5086005;27;46123;-75
2023/08/17 08:18:31;;;;;;;;;25.00;23.67;;;;;24.38;89.67;101554.47;5070714;27;45311;-75
2023/08/17 08:20:56;;;;;;;;;30.67;28.33;;;;;24.46;88.86;101551.88;5092537;27;45592;-75
2023/08/17 08:23:21;;;;;;;;;29.00;26.33;;;;;24.57;87.52;101557.16;5097206;27;50044;-74
2023/08/17 08:25:47;;;;;;;;;32.33;24.00;;;;;24.66;89.28;101545.47;5089812;27;44912;-75
2023/08/17 08:28:12;;;;;;;;;30.67;28.00;;;;;24.76;87.11;101547.16;5081366;28;45352;-75
2023/08/17 08:30:37;;;;;;;;;29.00;22.33;;;;;24.76;85.11;101533.63;5094107;27;45467;-75
2023/08/17 08:33:03;;;;;;;;;23.67;23.00;;;;;24.92;85.01;101552.00;5092886;27;45349;-75
2023/08/17 08:35:29;;;;;;;;;29.67;25.00;;;;;25.02;86.57;101547.41;5085649;27;45317;-75
2023/08/17 08:37:55;;;;;;;;;28.33;25.33;;;;;25.11;84.33;101540.25;5091208;27;45291;-74
2023/08/17 08:40:27;;;;;;;;;32.33;28.33;;;;;25.20;83.25;101556.44;5092222;27;45206;-74
2023/08/17 08:42:52;;;;;;;;;28.67;26.33;;;;;25.23;82.69;101550.72;5092006;27;45435;-75
2023/08/17 08:45:18;;;;;;;;;33.00;29.67;;;;;25.26;82.45;101547.72;5099647;27;45458;-75
2023/08/17 08:47:44;;;;;;;;;25.00;24.67;;;;;25.36;81.39;101545.81;5078552;27;45286;-75
2023/08/17 08:50:17;;;;;;;;;26.00;23.00;;;;;25.54;82.63;101561.31;5098973;27;45303;-75
2023/08/17 08:53:03;;;;;;;;;23.67;22.67;;;;;25.57;80.44;101544.75;5076038;27;45393;-75
2023/08/17 08:55:38;;;;;;;;;34.00;27.00;;;;;25.73;79.89;101551.22;5096205;27;45528;-75
2023/08/17 08:58:05;;;;;;;;;24.33;23.33;;;;;25.77;79.37;101549.94;5076230;27;45499;-75
2023/08/17 09:00:31;;;;;;;;;23.33;23.00;;;;;25.86;78.57;101551.72;5085263;27;45463;-75
2023/08/17 09:02:57;;;;;;;;;23.67;23.00;;;;;26.01;78.51;101551.19;5084633;27;45314;-75
2023/08/17 09:05:23;;;;;;;;;23.00;20.67;;;;;26.12;78.43;101543.69;5093981;27;45423;-75
2023/08/17 09:07:50;;;;;;;;;27.00;24.67;;;;;26.28;77.52;101546.56;5102712;27;45486;-75
2023/08/17 09:10:16;;;;;;;;;21.00;21.00;;;;;26.39;75.97;101548.19;5081031;27;45324;-75
2023/08/17 09:12:43;;;;;;;;;24.33;23.33;;;;;26.47;75.57;101542.00;5098405;27;45570;-74
2023/08/17 09:15:09;;;;;;;;;24.67;23.00;;;;;26.50;74.72;101531.69;5098513;27;45540;-76
2023/08/17 09:17:34;;;;;;;;;23.33;22.67;;;;;26.58;73.78;101545.31;5084049;27;45317;-75
2023/08/17 09:20:00;;;;;;;;;30.00;24.00;;;;;26.62;71.39;101533.13;5085050;27;45489;-75
2023/08/17 09:22:40;;;;;;;;;23.67;21.67;;;;;26.79;75.69;101539.53;5069439;27;45513;-76
2023/08/17 09:25:06;;;;;;;;;20.67;19.33;;;;;26.86;71.93;101541.44;5091183;27;45406;-76
2023/08/17 09:27:32;;;;;;;;;22.00;20.33;;;;;26.81;72.73;101519.38;5067598;27;45721;-75
2023/08/17 09:30:05;;;;;;;;;25.67;20.33;;;;;26.90;72.17;101523.84;5085550;27;45440;-75
2023/08/17 09:32:31;;;;;;;;;20.67;20.67;;;;;26.98;71.98;101538.47;5085114;27;45451;-76
2023/08/17 09:34:57;;;;;;;;;21.67;21.67;;;;;27.13;72.05;101528.72;5086387;27;45590;-76
2023/08/17 09:37:22;;;;;;;;;26.33;24.00;;;;;27.24;72.25;101532.00;5064768;28;45380;-75
2023/08/17 09:39:48;;;;;;;;;24.33;21.00;;;;;27.20;70.65;101530.63;5099749;27;45350;-75
2023/08/17 09:42:15;;;;;;;;;22.67;19.00;;;;;27.27;72.56;101523.53;5100098;27;45323;-76
2023/08/17 09:44:42;;;;;;;;;26.00;20.67;;;;;27.26;70.86;101507.38;5085509;27;46188;-75
2023/08/17 09:47:07;;;;;;;;;25.33;22.00;;;;;27.42;69.13;101521.06;5096316;27;45229;-76
2023/08/17 09:49:33;;;;;;;;;23.33;22.33;;;;;27.52;68.78;101518.25;5088952;27;45433;-76
2023/08/17 09:52:04;;;;;;;;;21.33;20.67;;;;;27.57;69.76;101515.88;5090058;27;45243;-76
2023/08/17 09:54:31;;;;;;;;;19.00;17.00;;;;;27.67;69.34;101517.44;5098073;27;46280;-76
2023/08/17 09:56:57;;;;;;;;;18.67;17.33;;;;;27.75;70.00;101501.13;5095614;27;44828;-76
2023/08/17 09:59:23;;;;;;;;;27.00;21.00;;;;;27.88;68.25;101503.34;5095744;27;45273;-76
2023/08/17 10:01:51;;;;;;;;;22.00;20.67;;;;;27.99;66.61;101511.22;5095178;27;45374;-76
2023/08/17 10:04:23;;;;;;;;;22.00;20.00;;;;;28.04;67.59;101513.44;5095244;27;46294;-76
2023/08/17 10:06:52;;;;;;;;;18.00;17.67;;;;;28.08;65.49;101510.22;5076577;27;45385;-76
2023/08/17 10:09:24;;;;;;;;;19.00;16.67;;;;;28.09;66.59;101501.06;5106717;27;45371;-76
2023/08/17 10:11:52;;;;;;;;;16.00;16.00;;;;;28.08;63.34;101485.75;5087203;28;45434;-77
2023/08/17 10:14:28;;;;;;;;;16.67;16.67;;;;;28.17;63.44;101500.22;5088510;27;47626;-76
2023/08/17 10:17:00;;;;;;;;;19.33;17.00;;;;;28.20;63.04;101499.88;5105834;27;45450;-76
2023/08/17 10:19:38;;;;;;;;;18.00;15.33;;;;;28.21;64.88;101499.69;5102940;27;45350;-76
2023/08/17 10:22:12;;;;;;;;;22.33;17.00;;;;;28.24;62.99;101499.34;5081662;28;44831;-77
2023/08/17 10:24:39;;;;;;;;;16.33;15.00;;;;;28.31;64.27;101486.78;5092443;27;45367;-76
2023/08/17 10:27:05;;;;;;;;;15.33;15.33;;;;;28.35;64.95;101490.00;5090423;27;45272;-76
2023/08/17 10:29:32;;;;;;;;;20.00;19.33;;;;;28.34;63.54;101489.16;5086946;27;45303;-76
2023/08/17 10:32:00;;;;;;;;;18.67;16.67;;;;;28.39;65.21;101496.81;5093042;27;45482;-76
2023/08/17 10:34:27;;;;;;;;;14.33;14.00;;;;;28.40;62.54;101474.03;5084513;27;46494;-76
2023/08/17 10:36:57;;;;;;;;;21.33;19.00;;;;;28.38;62.15;101478.78;5088567;27;45671;-76
2023/08/17 10:39:25;;;;;;;;;21.33;18.67;;;;;28.35;61.36;101463.66;5089186;27;45549;-76
2023/08/17 10:41:51;;;;;;;;;18.00;17.00;;;;;28.50;63.57;101476.56;5097924;27;45599;-76
2023/08/17 10:44:43;;;;;;;;;16.33;16.33;;;;;28.51;61.78;101473.66;5093367;27;46219;-76
2023/08/17 10:47:25;;;;;;;;;9.50;9.50;;;;;28.55;60.07;101474.16;5084032;27;45459;-76
2023/08/17 10:50:04;;;;;;;;;16.33;14.00;;;;;28.58;57.70;101480.13;5078290;27;45295;-76
2023/08/17 10:52:31;;;;;;;;;14.00;13.33;;;;;28.63;59.68;101471.44;5087373;27;45451;-77
2023/08/17 10:55:00;;;;;;;;;16.00;15.00;;;;;28.72;60.45;101465.84;5074742;28;47114;-77
2023/08/17 10:57:36;;;;;;;;;15.00;13.33;;;;;28.79;61.37;101466.84;5081235;27;45305;-76
2023/08/17 11:00:32;;;;;;;;;13.00;13.00;;;;;28.80;58.68;101467.66;5062901;27;45704;-77
2023/08/17 11:02:59;;;;;;;;;17.33;13.00;;;;;28.87;61.05;101472.25;5074704;27;45368;-76
2023/08/17 11:05:44;;;;;;;;;13.33;13.33;;;;;28.90;57.14;101468.31;5093447;27;46228;-76